createdAt,value
2022-11-24T00:02:20.932Z,194.75
2022-11-24T00:04:53.988Z,204.85
2022-11-24T00:07:20.589Z,185.95
2022-11-24T00:09:47.343Z,189.35
2022-11-24T00:12:21.081Z,208.07
2022-11-24T00:14:47.677Z,217.05
2022-11-24T00:17:14.301Z,250.27
2022-11-24T00:19:48.939Z,239.05
2022-11-24T00:22:22.003Z,192.23
2022-11-24T00:24:48.617Z,173.63
2022-11-24T00:27:21.933Z,214.30
2022-11-24T00:29:48.568Z,215.73
2022-11-24T00:32:15.312Z,232.75
2022-11-24T00:34:49.046Z,219.35
2022-11-24T00:37:15.640Z,175.82
2022-11-24T00:39:48.982Z,172.90
2022-11-24T00:42:15.605Z,205.18
2022-11-24T00:44:54.985Z,220.63
2022-11-24T00:47:21.624Z,204.57
2022-11-24T00:49:54.956Z,199.57
2022-11-24T00:52:21.567Z,199.75
2022-11-24T00:54:54.950Z,203.27
2022-11-24T00:57:21.523Z,183.98
2022-11-24T00:59:48.093Z,196.60
2022-11-24T01:02:21.110Z,198.35
2022-11-24T01:04:47.736Z,168.82
2022-11-24T01:07:20.993Z,170.35
2022-11-24T01:09:47.788Z,225.10
2022-11-24T01:12:21.045Z,205.82
2022-11-24T01:14:47.700Z,203.75
2022-11-24T01:17:14.336Z,225.25
2022-11-24T01:19:47.943Z,186.13
2022-11-24T01:22:21.951Z,188.05
2022-11-24T01:24:48.572Z,199.40
2022-11-24T01:27:21.956Z,193.75
2022-11-24T01:29:48.558Z,188.98
2022-11-24T01:32:15.167Z,207.05
2022-11-24T01:34:47.947Z,182.70
2022-11-24T01:37:14.653Z,206.63
2022-11-24T01:39:48.058Z,201.85
2022-11-24T01:42:14.647Z,196.32
2022-11-24T01:44:54.971Z,236.38
2022-11-24T01:47:36.460Z,172.57
2022-11-24T01:50:11.075Z,191.45
2022-11-24T01:52:44.298Z,213.35
2022-11-24T01:55:26.931Z,195.43
2022-11-24T01:58:13.983Z,230.02
2022-11-24T02:00:49.918Z,156.95
2022-11-24T02:03:22.070Z,236.90
2022-11-24T02:06:05.016Z,193.40
2022-11-24T02:08:54.697Z,207.93
2022-11-24T02:11:30.922Z,194.98
2022-11-24T02:13:57.742Z,168.07
2022-11-24T02:16:25.100Z,178.45
2022-11-24T02:18:59.013Z,164.07
2022-11-24T02:21:25.720Z,172.60
2022-11-24T02:24:16.001Z,182.70
2022-11-24T02:29:20.856Z,196.25
2022-11-24T02:32:02.000Z,150.73
2022-11-24T02:34:28.658Z,203.15
2022-11-24T02:36:55.301Z,200.75
2022-11-24T02:39:28.036Z,223.18
2022-11-24T02:42:01.561Z,199.93
2022-11-24T02:44:38.970Z,136.60
2022-11-24T02:47:12.454Z,143.85
2022-11-24T02:49:45.929Z,142.73
2022-11-24T02:52:12.525Z,168.10
2022-11-24T02:54:39.117Z,124.55
2022-11-24T02:57:11.990Z,151.27
2022-11-24T02:59:38.801Z,239.25
2022-11-24T03:02:11.929Z,204.60
2022-11-24T03:04:38.507Z,151.07
2022-11-24T03:07:05.084Z,147.60
2022-11-24T03:09:38.920Z,148.55
2022-11-24T03:12:05.752Z,153.40
2022-11-24T03:14:32.811Z,186.02
2022-11-24T03:17:05.940Z,255.00
2022-11-24T03:19:33.164Z,114.82
2022-11-24T03:22:07.012Z,146.25
2022-11-24T03:24:33.873Z,188.57
2022-11-24T03:27:06.921Z,125.60
2022-11-24T03:29:39.912Z,157.10
2022-11-24T03:32:12.947Z,121.63
2022-11-24T03:34:39.588Z,185.50
2022-11-24T03:37:06.182Z,130.75
2022-11-24T03:39:38.941Z,120.68
2022-11-24T03:42:12.003Z,121.32
2022-11-24T03:45:04.221Z,131.48
2022-11-24T03:47:49.971Z,170.80
2022-11-24T03:50:23.004Z,111.38
2022-11-24T03:52:49.605Z,147.52
2022-11-24T03:55:16.371Z,188.70
2022-11-24T03:57:49.970Z,180.32
2022-11-24T04:00:23.933Z,233.35
2022-11-24T04:02:50.644Z,142.77
2022-11-24T04:05:17.437Z,110.30
2022-11-24T04:07:51.043Z,125.38
2022-11-24T04:10:17.747Z,110.03
2022-11-24T04:12:44.382Z,112.50
2022-11-24T04:15:19.907Z,107.35
2022-11-24T04:17:54.026Z,131.95
2022-11-24T04:20:27.914Z,155.68
2022-11-24T04:22:54.480Z,188.88
2022-11-24T04:25:21.049Z,93.63
2022-11-24T04:27:58.910Z,120.55
2022-11-24T04:30:34.030Z,105.13
2022-11-24T04:33:10.926Z,131.98
2022-11-24T04:35:37.506Z,103.78
2022-11-24T04:38:10.986Z,156.02
2022-11-24T04:40:44.980Z,158.95
2022-11-24T04:43:12.095Z,127.78
2022-11-24T04:45:51.968Z,111.32
2022-11-24T04:48:18.543Z,90.93
2022-11-24T04:50:45.126Z,116.22
2022-11-24T04:53:17.961Z,101.53
2022-11-24T04:55:51.413Z,86.95
2022-11-24T04:58:31.912Z,152.90
2022-11-24T05:00:58.515Z,128.18
2022-11-24T05:03:25.100Z,137.07
2022-11-24T05:05:57.981Z,95.82
2022-11-24T05:08:30.928Z,178.57
2022-11-24T05:11:03.920Z,135.73
2022-11-24T05:13:30.533Z,105.28
2022-11-24T05:16:03.963Z,100.68
2022-11-24T05:18:30.580Z,110.72
2022-11-24T05:20:58.462Z,90.63
2022-11-24T05:23:31.981Z,125.40
2022-11-24T05:26:01.823Z,94.22
2022-11-24T05:28:28.909Z,132.40
2022-11-24T05:31:06.005Z,111.88
2022-11-24T05:33:33.372Z,108.85
2022-11-24T05:36:14.944Z,156.48
2022-11-24T05:38:54.958Z,145.27
2022-11-24T05:41:21.585Z,99.60
2022-11-24T05:43:54.916Z,119.97
2022-11-24T05:46:28.364Z,98.07
2022-11-24T05:49:01.931Z,114.85
2022-11-24T05:51:28.719Z,106.93
2022-11-24T05:53:55.292Z,80.50
2022-11-24T05:56:28.010Z,128.60
2022-11-24T05:58:55.165Z,107.32
2022-11-24T06:01:21.806Z,139.45
2022-11-24T06:03:54.979Z,118.82
2022-11-24T06:06:21.637Z,109.85
2022-11-24T06:08:54.936Z,79.00
2022-11-24T06:11:22.123Z,108.75
2022-11-24T06:13:54.973Z,101.50
2022-11-24T06:16:27.978Z,71.40
2022-11-24T06:18:54.640Z,73.30
2022-11-24T06:21:21.380Z,82.85
2022-11-24T06:23:55.906Z,83.68
2022-11-24T06:26:29.011Z,79.70
2022-11-24T06:29:01.951Z,82.05
2022-11-24T06:31:28.613Z,94.05
2022-11-24T06:33:55.361Z,102.30
2022-11-24T06:36:28.930Z,86.28
2022-11-24T06:38:55.584Z,91.22
2022-11-24T06:41:22.192Z,74.93
2022-11-24T06:43:54.905Z,73.88
2022-11-24T06:46:28.974Z,91.00
2022-11-24T06:48:55.607Z,96.50
2022-11-24T06:51:28.968Z,112.95
2022-11-24T06:54:01.994Z,118.75
2022-11-24T06:56:28.628Z,104.25
2022-11-24T06:59:01.996Z,86.43
2022-11-24T07:01:29.845Z,115.70
2022-11-24T07:04:03.899Z,107.47
2022-11-24T07:06:31.497Z,76.93
2022-11-24T07:08:58.124Z,64.57
2022-11-24T07:11:30.953Z,120.28
2022-11-24T07:14:00.032Z,108.32
2022-11-24T07:16:27.868Z,66.97
2022-11-24T07:19:01.912Z,81.95
2022-11-24T07:21:30.687Z,68.13
2022-11-24T07:24:04.917Z,100.18
2022-11-24T07:26:31.695Z,100.93
2022-11-24T07:29:04.911Z,87.60
2022-11-24T07:31:31.621Z,97.20
2022-11-24T07:33:58.280Z,69.85
2022-11-24T07:36:31.928Z,81.35
2022-11-24T07:39:04.976Z,72.75
2022-11-24T07:41:31.571Z,74.00
2022-11-24T07:44:11.942Z,109.95
2022-11-24T07:46:45.410Z,73.00
2022-11-24T07:49:18.913Z,64.43
2022-11-24T07:51:45.858Z,83.00
2022-11-24T07:54:12.513Z,64.80
2022-11-24T07:56:45.916Z,76.22
2022-11-24T07:59:12.515Z,80.25
2022-11-24T08:01:46.122Z,59.75
2022-11-24T08:04:12.903Z,64.78
2022-11-24T08:06:44.501Z,69.07
2022-11-24T08:09:19.966Z,60.38
2022-11-24T08:11:46.555Z,59.60
2022-11-24T08:14:19.911Z,66.30
2022-11-24T08:16:46.731Z,63.75
2022-11-24T08:19:20.117Z,59.38
2022-11-24T08:21:52.914Z,70.20
2022-11-24T08:24:25.933Z,65.45
2022-11-24T08:26:58.910Z,61.60
2022-11-24T08:29:36.036Z,64.70
2022-11-24T08:32:02.772Z,66.38
2022-11-24T08:34:29.469Z,65.18
2022-11-24T08:37:02.928Z,66.22
2022-11-24T08:39:35.982Z,61.03
2022-11-24T08:42:02.602Z,62.63
2022-11-24T08:44:42.948Z,59.17
2022-11-24T08:47:15.986Z,55.20
2022-11-24T08:49:42.582Z,57.92
2022-11-24T08:52:15.965Z,57.50
2022-11-24T08:54:50.917Z,64.30
2022-11-24T08:57:21.796Z,58.63
2022-11-24T08:59:54.972Z,58.72
2022-11-24T09:02:27.919Z,55.78
2022-11-24T09:04:54.568Z,54.72
2022-11-24T09:07:21.224Z,52.13
2022-11-24T09:09:54.052Z,53.45
2022-11-24T09:12:20.704Z,57.22
2022-11-24T09:14:53.909Z,56.45
2022-11-24T09:17:20.489Z,56.42
2022-11-24T09:19:53.937Z,49.42
2022-11-24T09:22:20.529Z,52.97
2022-11-24T09:24:53.955Z,55.63
2022-11-24T09:27:20.646Z,57.65
2022-11-24T09:29:47.220Z,49.08
2022-11-24T09:32:19.980Z,51.75
2022-11-24T09:34:46.605Z,50.70
2022-11-24T09:37:19.951Z,57.97
2022-11-24T09:39:46.587Z,51.45
2022-11-24T09:42:36.333Z,49.13
2022-11-24T09:45:57.544Z,51.63
2022-11-24T09:48:36.931Z,51.42
2022-11-24T09:51:04.830Z,49.92
2022-11-24T09:53:48.915Z,51.88
2022-11-24T09:56:28.811Z,51.60
2022-11-24T09:59:16.942Z,50.60
2022-11-24T10:01:45.708Z,49.28
2022-11-24T10:04:41.978Z,54.63
2022-11-24T10:07:12.071Z,50.10
2022-11-24T10:10:24.189Z,54.17
2022-11-24T10:12:51.523Z,52.03
2022-11-24T10:15:52.012Z,52.33
2022-11-24T10:18:39.891Z,51.33
2022-11-24T10:21:27.975Z,46.05
2022-11-24T10:24:21.891Z,52.40
2022-11-24T10:27:00.781Z,54.25
2022-11-24T10:29:47.968Z,56.45
2022-11-24T10:32:19.555Z,48.95
2022-11-24T10:34:57.912Z,50.50
2022-11-24T10:37:40.595Z,49.33
2022-11-24T10:40:55.477Z,49.95
2022-11-24T10:43:12.756Z,51.60
2022-11-24T10:45:53.931Z,49.67
2022-11-24T10:48:43.956Z,50.40
2022-11-24T10:51:32.979Z,50.13
2022-11-24T10:54:18.943Z,50.35
2022-11-24T10:56:47.300Z,51.17
2022-11-24T10:59:49.944Z,58.33
2022-11-24T11:02:39.056Z,52.45
2022-11-24T11:05:33.996Z,48.50
2022-11-24T11:08:28.340Z,52.08
2022-11-24T11:11:23.945Z,50.33
2022-11-24T11:14:05.069Z,51.55
2022-11-24T11:16:54.954Z,55.40
2022-11-24T11:19:54.146Z,54.60
2022-11-24T11:22:50.389Z,55.28
2022-11-24T11:25:29.653Z,52.58
2022-11-24T11:28:33.889Z,49.77
2022-11-24T11:31:21.120Z,49.88
2022-11-24T11:34:29.984Z,48.58
2022-11-24T11:36:59.629Z,54.13
2022-11-24T11:39:48.309Z,47.78
2022-11-24T11:43:06.239Z,49.65
2022-11-24T11:45:58.009Z,52.13
2022-11-24T11:48:43.292Z,51.83
2022-11-24T11:51:23.460Z,49.97
2022-11-24T11:53:59.793Z,52.30
2022-11-24T11:56:39.898Z,52.72
2022-11-24T11:59:26.471Z,52.70
2022-11-24T12:02:17.945Z,54.88
2022-11-24T12:04:52.648Z,53.08
2022-11-24T12:08:04.942Z,52.60
2022-11-24T12:11:07.932Z,46.40
2022-11-24T12:14:18.609Z,47.35
2022-11-24T12:17:11.883Z,48.67
2022-11-24T12:19:54.894Z,47.40
2022-11-24T12:22:37.610Z,45.67
2022-11-24T12:25:33.915Z,50.25
2022-11-24T12:28:29.925Z,48.35
2022-11-24T12:31:14.976Z,49.42
2022-11-24T12:34:19.356Z,51.45
2022-11-24T12:37:16.963Z,45.50
2022-11-24T12:40:03.669Z,51.42
2022-11-24T12:43:06.884Z,48.53
2022-11-24T12:45:54.947Z,53.20
2022-11-24T12:48:39.263Z,52.45
2022-11-24T12:51:21.955Z,54.17
2022-11-24T12:53:50.768Z,51.53
2022-11-24T12:56:28.930Z,55.33
2022-11-24T12:59:24.880Z,50.92
2022-11-24T13:02:17.219Z,47.95
2022-11-24T13:04:59.955Z,52.45
2022-11-24T13:07:48.992Z,52.13
2022-11-24T13:10:46.476Z,51.83
2022-11-24T13:13:22.033Z,51.15
2022-11-24T13:16:20.697Z,50.90
2022-11-24T13:19:08.006Z,56.15
2022-11-24T13:21:58.988Z,51.35
2022-11-24T13:24:31.042Z,51.28
2022-11-24T13:27:22.885Z,49.80
2022-11-24T13:29:50.918Z,48.33
2022-11-24T13:32:29.965Z,46.95
2022-11-24T13:35:04.166Z,41.95
2022-11-24T13:37:36.899Z,49.55
2022-11-24T13:40:29.916Z,51.10
2022-11-24T13:43:10.941Z,48.80
2022-11-24T13:45:55.929Z,46.67
2022-11-24T13:48:42.028Z,45.10
2022-11-24T13:51:17.216Z,55.15
2022-11-24T13:53:53.884Z,50.08
2022-11-24T13:56:24.483Z,49.17
2022-11-24T13:59:09.968Z,55.33
2022-11-24T14:01:40.610Z,53.03
2022-11-24T14:04:31.067Z,52.85
2022-11-24T14:07:09.932Z,52.45
2022-11-24T14:09:52.956Z,51.03
2022-11-24T14:12:33.991Z,55.20
2022-11-24T14:15:24.379Z,47.28
2022-11-24T14:17:57.922Z,49.80
2022-11-24T14:20:32.885Z,47.83
2022-11-24T14:23:06.913Z,55.58
2022-11-24T14:25:35.190Z,52.00
2022-11-24T14:28:08.973Z,53.88
2022-11-24T14:30:42.103Z,47.67
2022-11-24T14:33:18.433Z,46.58
2022-11-24T14:35:53.926Z,53.80
2022-11-24T14:38:20.578Z,45.00
2022-11-24T14:40:57.908Z,51.42
2022-11-24T14:43:31.855Z,50.22
2022-11-24T14:46:19.004Z,55.83
2022-11-24T14:48:55.911Z,49.10
2022-11-24T14:51:37.138Z,52.78
2022-11-24T14:54:07.338Z,52.20
2022-11-24T14:59:29.929Z,51.17
2022-11-24T15:01:57.413Z,52.50
2022-11-24T15:07:31.971Z,52.53
2022-11-24T15:10:07.955Z,54.95
2022-11-24T15:12:46.894Z,59.67
2022-11-24T15:15:20.064Z,57.70
2022-11-24T15:17:53.487Z,53.65
2022-11-24T15:20:36.975Z,57.42
2022-11-24T15:23:22.286Z,57.20
2022-11-24T15:25:59.917Z,52.60
2022-11-24T15:28:26.696Z,57.50
2022-11-24T15:31:07.948Z,65.85
2022-11-24T15:33:34.603Z,61.55
2022-11-24T15:36:01.282Z,53.22
2022-11-24T15:38:34.940Z,55.35
2022-11-24T15:41:02.020Z,60.67
2022-11-24T15:43:40.970Z,51.67
2022-11-24T15:46:14.519Z,56.25
2022-11-24T15:48:47.889Z,57.28
2022-11-24T15:51:21.940Z,55.67
2022-11-24T15:54:00.961Z,60.70
2022-11-24T15:56:40.879Z,56.43
2022-11-24T15:59:21.174Z,45.55
2022-11-24T16:01:50.088Z,55.17
2022-11-24T16:04:16.960Z,50.22
2022-11-24T16:06:49.953Z,53.10
2022-11-24T16:09:17.230Z,52.80
2022-11-24T16:11:44.047Z,54.45
2022-11-24T16:14:16.951Z,55.17
2022-11-24T16:16:56.946Z,52.97
2022-11-24T16:19:23.523Z,49.05
2022-11-24T16:21:56.938Z,61.20
2022-11-24T16:24:23.856Z,53.92
2022-11-24T16:26:56.893Z,53.95
2022-11-24T16:29:24.244Z,55.35
2022-11-24T16:31:54.449Z,49.72
2022-11-24T16:36:54.481Z,46.83
2022-11-24T16:39:27.970Z,52.55
2022-11-24T16:41:54.555Z,57.40
2022-11-24T16:44:27.919Z,51.05
2022-11-24T16:47:01.395Z,52.00
2022-11-24T16:49:34.896Z,53.88
2022-11-24T16:52:01.492Z,47.00
2022-11-24T16:54:28.130Z,49.30
2022-11-24T16:57:01.881Z,51.85
2022-11-24T16:59:28.495Z,48.95
2022-11-24T17:02:01.966Z,54.83
2022-11-24T17:04:28.616Z,52.95
2022-11-24T17:06:55.249Z,60.50
2022-11-24T17:09:29.017Z,53.83
2022-11-24T17:11:55.643Z,52.42
2022-11-24T17:14:28.964Z,53.58
2022-11-24T17:17:05.278Z,55.38
2022-11-24T17:19:32.216Z,53.80
2022-11-24T17:21:58.944Z,51.17
2022-11-24T17:24:32.224Z,62.20
2022-11-24T17:27:05.896Z,58.45
2022-11-24T17:29:38.961Z,57.92
2022-11-24T17:32:05.733Z,61.08
2022-11-24T17:34:38.893Z,57.85
2022-11-24T17:37:05.605Z,63.10
2022-11-24T17:39:32.512Z,56.42
2022-11-24T17:42:05.898Z,59.40
2022-11-24T17:44:38.920Z,63.53
2022-11-24T17:47:11.984Z,64.07
2022-11-24T17:49:51.880Z,61.28
2022-11-24T17:52:18.920Z,62.38
2022-11-24T17:54:57.148Z,64.47
2022-11-24T17:57:32.907Z,73.28
2022-11-24T17:59:59.504Z,63.50
2022-11-24T18:02:32.949Z,66.22
2022-11-24T18:04:59.603Z,68.78
2022-11-24T18:07:32.920Z,69.50
2022-11-24T18:09:59.588Z,62.70
2022-11-24T18:12:32.883Z,68.80
2022-11-24T18:15:05.932Z,74.25
2022-11-24T18:17:32.562Z,72.95
2022-11-24T18:19:59.149Z,75.13
2022-11-24T18:22:57.920Z,72.32
2022-11-24T18:25:19.536Z,69.22
2022-11-24T18:27:52.885Z,70.80
2022-11-24T18:30:19.607Z,67.95
2022-11-24T18:32:46.199Z,62.30
2022-11-24T18:35:18.901Z,65.65
2022-11-24T18:37:52.349Z,63.75
2022-11-24T18:40:25.871Z,68.93
2022-11-24T18:42:52.463Z,63.17
2022-11-24T18:45:32.929Z,59.17
2022-11-24T18:48:06.541Z,63.08
2022-11-24T18:50:39.877Z,69.78
2022-11-24T18:53:06.577Z,59.60
2022-11-24T18:55:33.182Z,58.35
2022-11-24T18:58:05.877Z,59.05
2022-11-24T19:00:33.500Z,55.47
2022-11-24T19:03:06.886Z,56.05
2022-11-24T19:05:34.694Z,53.15
2022-11-24T19:08:07.894Z,53.30
2022-11-24T19:10:44.879Z,55.40
2022-11-24T19:13:12.666Z,58.70
2022-11-24T19:15:45.900Z,59.85
2022-11-24T19:18:18.877Z,56.78
2022-11-24T19:20:52.907Z,52.95
2022-11-24T19:23:19.545Z,57.63
2022-11-24T19:25:46.131Z,58.03
2022-11-24T19:28:18.897Z,49.05
2022-11-24T19:30:45.501Z,55.15
2022-11-24T19:33:18.857Z,64.97
2022-11-24T19:35:45.452Z,63.97
2022-11-24T19:38:18.866Z,66.25
2022-11-24T19:40:45.443Z,57.80
2022-11-24T19:43:12.011Z,49.70
2022-11-24T19:45:49.905Z,55.00
2022-11-24T19:48:16.548Z,56.67
2022-11-24T19:50:43.134Z,64.68
2022-11-24T19:53:15.895Z,50.70
2022-11-24T19:55:42.533Z,58.83
2022-11-24T19:58:09.118Z,57.15
2022-11-24T20:00:41.923Z,58.38
2022-11-24T20:03:08.726Z,72.35
2022-11-24T20:05:35.340Z,63.28
2022-11-24T20:08:08.911Z,73.65
2022-11-24T20:10:35.527Z,62.13
2022-11-24T20:13:08.892Z,67.90
2022-11-24T20:15:35.459Z,59.92
2022-11-24T20:18:08.870Z,66.55
2022-11-24T20:20:35.446Z,61.80
2022-11-24T20:23:08.879Z,62.45
2022-11-24T20:25:45.024Z,64.50
2022-11-24T20:28:17.890Z,65.57
2022-11-24T20:30:44.481Z,64.95
2022-11-24T20:33:17.891Z,59.13
2022-11-24T20:35:44.465Z,54.40
2022-11-24T20:38:11.080Z,56.95
2022-11-24T20:40:43.874Z,57.63
2022-11-24T20:43:10.560Z,65.18
2022-11-24T20:45:56.984Z,61.47
2022-11-24T20:48:23.644Z,56.42
2022-11-24T20:50:51.572Z,53.67
2022-11-24T20:53:24.897Z,86.95
2022-11-24T20:55:51.494Z,65.38
2022-11-24T20:58:24.882Z,63.30
2022-11-24T21:00:58.908Z,57.97
2022-11-24T21:03:25.750Z,77.05
2022-11-24T21:09:03.233Z,73.20
2022-11-24T21:11:36.894Z,62.22
2022-11-24T21:14:10.875Z,78.78
2022-11-24T21:16:45.936Z,86.43
2022-11-24T21:19:21.200Z,63.33
2022-11-24T21:21:48.786Z,71.22
2022-11-24T21:24:17.838Z,62.78
2022-11-24T21:26:53.873Z,61.85
2022-11-24T21:29:23.294Z,67.97
2022-11-24T21:31:57.065Z,67.15
2022-11-24T21:34:23.721Z,70.22
2022-11-24T21:36:56.933Z,68.43
2022-11-24T21:39:23.573Z,75.57
2022-11-24T21:41:50.240Z,66.45
2022-11-24T21:44:22.892Z,68.20
2022-11-24T21:47:09.835Z,74.78
2022-11-24T21:49:42.955Z,65.40
2022-11-24T21:52:15.942Z,66.55
2022-11-24T21:54:42.545Z,75.05
2022-11-24T21:57:21.953Z,72.15
2022-11-24T21:59:49.024Z,73.53
2022-11-24T22:02:15.651Z,76.78
2022-11-24T22:04:48.919Z,61.55
2022-11-24T22:07:21.983Z,66.45
2022-11-24T22:09:55.920Z,64.55
2022-11-24T22:12:22.499Z,58.88
2022-11-24T22:14:49.075Z,62.28
2022-11-24T22:17:21.935Z,59.08
2022-11-24T22:19:48.576Z,61.00
2022-11-24T22:22:15.148Z,64.32
2022-11-24T22:24:47.858Z,67.63
2022-11-24T22:27:20.876Z,59.17
2022-11-24T22:29:54.362Z,55.75
2022-11-24T22:32:27.935Z,57.60
2022-11-24T22:34:54.524Z,66.72
2022-11-24T22:37:21.108Z,53.47
2022-11-24T22:39:53.859Z,53.67
2022-11-24T22:42:20.485Z,55.50
2022-11-24T22:44:53.937Z,57.17
2022-11-24T22:47:33.853Z,56.22
2022-11-24T22:50:13.888Z,61.83
2022-11-24T22:52:46.910Z,54.10
2022-11-24T22:55:13.538Z,59.97
2022-11-24T22:57:48.427Z,69.55
2022-11-24T23:00:16.222Z,72.57
2022-11-24T23:02:42.945Z,72.15
2022-11-24T23:05:20.738Z,80.00
2022-11-24T23:07:53.898Z,89.85
2022-11-24T23:10:27.928Z,87.95
2022-11-24T23:12:55.500Z,79.15
2022-11-24T23:15:22.088Z,88.22
2022-11-24T23:17:54.920Z,86.28
2022-11-24T23:20:22.726Z,90.68
2022-11-24T23:22:49.300Z,84.10
2022-11-24T23:25:22.914Z,85.53
2022-11-24T23:27:49.507Z,84.03
2022-11-24T23:30:22.922Z,73.63
2022-11-24T23:32:49.507Z,83.80
2022-11-24T23:35:16.137Z,79.68
2022-11-24T23:38:07.903Z,75.20
2022-11-24T23:40:40.855Z,82.18
2022-11-24T23:43:07.443Z,81.70
2022-11-24T23:45:41.021Z,84.88
2022-11-24T23:48:27.861Z,77.70
2022-11-24T23:51:00.881Z,73.93
2022-11-24T23:53:30.449Z,86.18
2022-11-24T23:55:57.056Z,75.55
2022-11-24T23:58:29.996Z,76.03
